SVMI Airport Information

Runway Information
Runway 09 Length 9930 ft width 145 ft
Elevation 230 ft Threshold 0 ft Heading 76
Runway 27 Length 9930 ft Width 145 ft
Elevation 101 ft Threshold 0 ft Heading 256
Runway 10 Length 11483 ft width 148 ft
Elevation 235 ft Threshold 0 ft Heading 88
Runway 28 Length 11483 ft Width 148 ft
Elevation 147 ft Threshold 0 ft Heading 268
Airport Frequencies
Type APP Name MAIQUETIA Frequency 120.1 MHZ
Type ATIS Name ATIS Frequency 114.8 MHZ
Type CLD Name CLD Frequency 119.5 MHZ
Type DEP Name MAIQUETIA Frequency 118.4 MHZ
Type GND Name GND Frequency 121.9 MHZ
Type RDO Name MAIQUETIA Frequency 130.1 MHZ
Type TWR Name MAIQUETIA Frequency 118.1 MHZ
Airport Navaids
Type VOR-DME Name Maiquetia Frequency 114800 KHZ
Type NDB Name Maiquetia Frequency 292 KHZ
Airport Weather Information & NOTAM
ADDS - METARS form results

(1128 UTC 13 December 2019)
Data provider http://aviationweather.gov/metar/data/
 
METAR text: SVMI 131102Z AUTO 07003KT NCD 23/20 Q1011
Conditions at: SVMI (CARACAS/S. BOLIV, VE) observed 1102 UTC 13 December 2019
Temperature: 23.0°C (73°F)
Dewpoint: 20.0°C (68°F) [RH = 83%]
Pressure (altimeter): 29.85 inches Hg (1011.0 mb)
Winds: from the ENE (70 degrees) at 3 MPH (3 knots; 1.5 m/s)
Visibility: missing
Ceiling: at least 12,000 feet AGL
Clouds: sky clear below 12,000 feet AGL
Weather: no significant weather observed at this time

METAR text: SVMI 131100Z 09002KT 9999 FEW016 SCT100 24/22 Q1011
Conditions at: SVMI (CARACAS/S. BOLIV, VE) observed 1100 UTC 13 December 2019
Temperature: 24.0°C (75°F)
Dewpoint: 22.0°C (72°F) [RH = 89%]
Pressure (altimeter): 29.85 inches Hg (1011.0 mb)
Winds: from the E (90 degrees) at 2 MPH (2 knots; 1.0 m/s)
Visibility: 6 or more miles (10+ km)
Ceiling: at least 12,000 feet AGL
Clouds: few clouds at 1600 feet AGL
scattered clouds at 10000 feet AGL
Weather: no significant weather observed at this time

Forecast for: SVMI (CARACAS/S. BOLIV, VE)
Text: TAF SVMI 131000Z 1312/1412 09001KT 9999 FEW016 SCT100 TX30/18Z TN22/08Z
Forecast period: 1200 UTC 13 December 2019 to 1200 UTC 14 December 2019
Forecast type: FROM: standard forecast or significant change
Winds: from the E (90 degrees) at 1 MPH (1 knots; 0.5 m/s)
Visibility: 6 or more miles 10+ km)
Ceiling: at least 12,000 feet AGL
Clouds: few clouds at 1600 feet AGL
scattered clouds at 10000 feet AGL
Weather: no significant weather forecast for this period
Text: BECMG 1312/1316 00000KT SCT016
Forecast period: 1200 UTC 13 December 2019 to 1200 UTC 14 December 2019
Forecast type: BECOMING: Conditions expected to become as follows by 1600 UTC 13 December 2019
Winds: calm
Visibility: 6 or more miles 10+ km)
Ceiling: at least 12,000 feet AGL
Clouds: scattered clouds at 1600 feet AGL
Weather: no significant weather forecast for this period